createdAt,value
2023-11-23T00:00:18.841Z,79.11
2023-11-23T00:01:18.266Z,79.26
2023-11-23T00:02:13.427Z,79.15
2023-11-23T00:03:08.556Z,78.97
2023-11-23T00:04:03.641Z,78.75
2023-11-23T00:04:58.764Z,78.65
2023-11-23T00:05:53.813Z,78.44
2023-11-23T00:06:48.886Z,78.29
2023-11-23T00:07:43.921Z,78.24
2023-11-23T00:08:39.023Z,78.31
2023-11-23T00:09:34.068Z,78.52
2023-11-23T00:10:29.050Z,78.74
2023-11-23T00:11:24.079Z,78.93
2023-11-23T00:12:19.209Z,79.17
2023-11-23T00:13:14.282Z,79.38
2023-11-23T00:14:09.500Z,79.57
2023-11-23T00:15:05.197Z,79.80
2023-11-23T00:16:00.397Z,79.89
2023-11-23T00:16:56.223Z,80.11
2023-11-23T00:17:51.275Z,80.28
2023-11-23T00:18:46.784Z,80.24
2023-11-23T00:19:42.300Z,80.18
2023-11-23T00:20:37.525Z,79.89
2023-11-23T00:21:32.658Z,79.68
2023-11-23T00:22:29.092Z,79.56
2023-11-23T00:23:24.312Z,79.33
2023-11-23T00:24:20.208Z,79.22
2023-11-23T00:25:15.620Z,79.10
2023-11-23T00:26:10.615Z,78.93
2023-11-23T00:27:06.364Z,78.76
2023-11-23T00:28:01.587Z,78.74
2023-11-23T00:28:57.311Z,78.83
2023-11-23T00:29:52.848Z,78.95
2023-11-23T00:30:47.662Z,78.96
2023-11-23T00:31:42.842Z,78.67
2023-11-23T00:32:39.214Z,78.43
2023-11-23T00:33:34.529Z,78.32
2023-11-23T00:34:30.170Z,78.39
2023-11-23T00:35:25.382Z,78.52
2023-11-23T00:36:20.438Z,78.50
2023-11-23T00:37:16.384Z,78.34
2023-11-23T00:38:11.550Z,78.45
2023-11-23T00:39:07.509Z,78.50
2023-11-23T00:40:02.712Z,78.44
2023-11-23T00:40:57.933Z,78.46
2023-11-23T00:41:53.705Z,78.36
2023-11-23T00:42:48.991Z,78.38
2023-11-23T00:43:44.105Z,78.58
2023-11-23T00:44:40.646Z,78.85
2023-11-23T00:45:35.540Z,78.83
2023-11-23T00:46:30.862Z,78.65
2023-11-23T00:47:25.940Z,78.27
2023-11-23T00:48:23.710Z,78.32
2023-11-23T00:49:18.757Z,78.40
2023-11-23T00:50:14.031Z,78.43
2023-11-23T00:51:09.235Z,78.50
2023-11-23T00:52:05.543Z,78.71
2023-11-23T00:53:00.725Z,78.91
2023-11-23T00:53:55.919Z,79.09
2023-11-23T00:54:51.660Z,79.33
2023-11-23T00:55:47.018Z,79.50
2023-11-23T00:56:42.090Z,79.65
2023-11-23T00:57:37.261Z,79.81
2023-11-23T00:58:32.428Z,79.95
2023-11-23T00:59:27.768Z,79.96
2023-11-23T01:00:24.028Z,79.97
2023-11-23T01:01:19.012Z,80.07
2023-11-23T01:02:14.255Z,80.21
2023-11-23T01:03:09.355Z,80.30
2023-11-23T01:04:04.501Z,80.46
2023-11-23T01:05:00.910Z,80.56
2023-11-23T01:05:55.998Z,80.69
2023-11-23T01:06:51.177Z,80.72
2023-11-23T01:07:46.366Z,80.77
2023-11-23T01:08:41.443Z,80.79
2023-11-23T01:09:36.459Z,80.86
2023-11-23T01:10:31.558Z,81.03
2023-11-23T01:11:26.542Z,81.02
2023-11-23T01:12:21.738Z,80.84
2023-11-23T01:13:16.766Z,80.56
2023-11-23T01:14:11.845Z,80.28
2023-11-23T01:15:06.927Z,80.24
2023-11-23T01:16:02.148Z,80.11
2023-11-23T01:16:57.870Z,80.12
2023-11-23T01:17:52.940Z,80.24
2023-11-23T01:18:47.938Z,80.09
2023-11-23T01:19:43.018Z,79.88
2023-11-23T01:20:38.108Z,79.56
2023-11-23T01:21:33.148Z,79.39
2023-11-23T01:22:28.166Z,79.36
2023-11-23T01:23:23.225Z,79.48
2023-11-23T01:24:18.512Z,79.62
2023-11-23T01:25:13.528Z,79.70
2023-11-23T01:26:08.550Z,79.67
2023-11-23T01:27:03.703Z,79.44
2023-11-23T01:27:58.665Z,79.35
2023-11-23T01:28:53.716Z,79.34
2023-11-23T01:29:48.786Z,79.63
2023-11-23T01:30:43.867Z,79.64
2023-11-23T01:31:38.949Z,79.55
2023-11-23T01:32:34.088Z,79.59
2023-11-23T01:33:30.834Z,79.68
2023-11-23T01:34:26.177Z,79.71
2023-11-23T01:35:21.040Z,79.93
2023-11-23T01:36:18.907Z,80.10
2023-11-23T01:37:11.095Z,80.35
2023-11-23T01:38:06.168Z,80.29
2023-11-23T01:39:01.255Z,80.27
2023-11-23T01:39:56.287Z,80.23
2023-11-23T01:40:51.890Z,80.31
2023-11-23T01:41:47.076Z,80.37
2023-11-23T01:42:42.209Z,80.42
2023-11-23T01:43:37.584Z,80.36
2023-11-23T01:44:32.730Z,80.28
2023-11-23T01:45:28.233Z,80.24
2023-11-23T01:46:23.134Z,80.25
2023-11-23T01:47:18.191Z,80.32
2023-11-23T01:48:13.437Z,80.47
2023-11-23T01:49:08.468Z,80.73
2023-11-23T01:50:03.596Z,80.93
2023-11-23T01:50:58.836Z,81.04
2023-11-23T01:51:53.957Z,81.18
2023-11-23T01:52:49.036Z,81.36
2023-11-23T01:53:44.112Z,81.43
2023-11-23T01:54:39.192Z,81.53
2023-11-23T01:55:34.189Z,81.62
2023-11-23T01:56:29.415Z,81.71
2023-11-23T01:57:24.408Z,81.74
2023-11-23T01:58:19.481Z,81.76
2023-11-23T01:59:14.511Z,81.81
2023-11-23T02:00:09.601Z,81.89
2023-11-23T02:01:04.789Z,81.97
2023-11-23T02:01:59.688Z,82.02
2023-11-23T02:02:54.805Z,82.09
2023-11-23T02:03:49.947Z,82.12
2023-11-23T02:04:44.835Z,82.22
2023-11-23T02:05:39.934Z,82.32
2023-11-23T02:06:34.957Z,82.49
2023-11-23T02:07:29.990Z,82.63
2023-11-23T02:08:25.063Z,82.75
2023-11-23T02:09:20.256Z,82.72
2023-11-23T02:10:15.525Z,82.57
2023-11-23T02:11:10.599Z,82.50
2023-11-23T02:12:05.810Z,82.39
2023-11-23T02:13:00.734Z,82.35
2023-11-23T02:13:55.729Z,82.26
2023-11-23T02:14:50.786Z,82.16
2023-11-23T02:15:46.420Z,82.13
2023-11-23T02:16:41.579Z,82.08
2023-11-23T02:17:36.841Z,82.06
2023-11-23T02:18:32.020Z,82.03
2023-11-23T02:19:27.030Z,82.04
2023-11-23T02:20:22.198Z,82.16
2023-11-23T02:21:17.359Z,82.31
2023-11-23T02:22:12.724Z,82.46
2023-11-23T02:23:07.611Z,82.45
2023-11-23T02:24:02.820Z,82.41
2023-11-23T02:24:57.936Z,82.37
2023-11-23T02:25:53.208Z,82.21
2023-11-23T02:26:48.488Z,82.11
2023-11-23T02:27:43.671Z,81.99
2023-11-23T02:28:38.692Z,81.82
2023-11-23T02:29:33.887Z,81.67
2023-11-23T02:30:29.169Z,81.58
2023-11-23T02:31:24.246Z,81.53
2023-11-23T02:32:19.481Z,81.52
2023-11-23T02:33:14.644Z,81.64
2023-11-23T02:34:09.688Z,81.81
2023-11-23T02:35:04.769Z,82.13
2023-11-23T02:35:59.851Z,82.41
2023-11-23T02:36:55.047Z,82.70
2023-11-23T02:37:53.078Z,82.94
2023-11-23T02:38:48.254Z,83.15
2023-11-23T02:39:43.279Z,83.28
2023-11-23T02:40:38.373Z,83.37
2023-11-23T02:41:33.359Z,83.50
2023-11-23T02:42:28.628Z,83.64
2023-11-23T02:43:23.499Z,83.73
2023-11-23T02:44:18.615Z,83.71
2023-11-23T02:45:13.751Z,83.67
2023-11-23T02:46:08.769Z,83.55
2023-11-23T02:47:03.773Z,83.44
2023-11-23T02:47:58.944Z,83.34
2023-11-23T02:48:54.063Z,83.36
2023-11-23T02:49:49.061Z,83.39
2023-11-23T02:50:44.136Z,83.40
2023-11-23T02:51:39.194Z,83.43
2023-11-23T02:52:34.280Z,83.46
2023-11-23T02:53:29.311Z,83.61
2023-11-23T02:54:24.478Z,83.79
2023-11-23T02:55:19.538Z,83.94
2023-11-23T02:56:14.663Z,84.05
2023-11-23T02:57:09.761Z,84.10
2023-11-23T02:58:04.763Z,84.06
2023-11-23T02:58:59.824Z,84.11
2023-11-23T02:59:54.898Z,84.13
2023-11-23T03:00:49.964Z,84.14
2023-11-23T03:01:44.971Z,84.22
2023-11-23T03:02:40.081Z,84.23
2023-11-23T03:03:35.146Z,84.28
2023-11-23T03:04:30.336Z,84.24
2023-11-23T03:05:25.385Z,84.22
2023-11-23T03:06:20.431Z,84.22
2023-11-23T03:07:15.476Z,84.22
2023-11-23T03:08:10.545Z,84.17
2023-11-23T03:09:05.566Z,84.22
2023-11-23T03:10:00.720Z,84.25
2023-11-23T03:10:55.723Z,84.26
2023-11-23T03:11:50.840Z,84.25
2023-11-23T03:12:45.858Z,84.15
2023-11-23T03:13:41.165Z,84.02
2023-11-23T03:14:36.175Z,83.81
2023-11-23T03:15:31.379Z,83.68
2023-11-23T03:16:26.542Z,83.53
2023-11-23T03:17:21.774Z,83.40
2023-11-23T03:18:17.227Z,83.34
2023-11-23T03:19:12.177Z,83.33
2023-11-23T03:20:07.313Z,83.34
2023-11-23T03:21:02.545Z,83.36
2023-11-23T03:21:58.004Z,83.50
2023-11-23T03:22:52.884Z,83.62
2023-11-23T03:23:48.056Z,83.86
2023-11-23T03:24:43.256Z,84.13
2023-11-23T03:25:38.416Z,84.39
2023-11-23T03:26:33.589Z,84.61
2023-11-23T03:27:28.756Z,84.79
2023-11-23T03:28:23.990Z,85.07
2023-11-23T03:29:19.162Z,85.15
2023-11-23T03:30:14.444Z,85.22
2023-11-23T03:31:09.443Z,85.19
2023-11-23T03:32:04.635Z,84.92
2023-11-23T03:33:00.052Z,84.65
2023-11-23T03:33:55.007Z,84.29
2023-11-23T03:34:50.357Z,84.12
2023-11-23T03:35:45.407Z,84.00
2023-11-23T03:36:40.536Z,83.89
2023-11-23T03:37:35.747Z,83.74
2023-11-23T03:38:30.942Z,83.67
2023-11-23T03:39:26.090Z,83.64
2023-11-23T03:40:20.970Z,83.44
2023-11-23T03:41:16.048Z,83.38
2023-11-23T03:42:11.124Z,83.47
2023-11-23T03:43:06.283Z,83.54
2023-11-23T03:44:01.444Z,83.50
2023-11-23T03:44:56.754Z,83.62
2023-11-23T03:45:51.824Z,83.53
2023-11-23T03:46:46.993Z,83.41
2023-11-23T03:47:42.094Z,83.37
2023-11-23T03:48:37.216Z,83.55
2023-11-23T03:49:32.230Z,83.76
2023-11-23T03:50:27.278Z,83.71
2023-11-23T03:51:22.396Z,83.65
2023-11-23T03:52:17.444Z,83.56
2023-11-23T03:53:12.546Z,83.50
2023-11-23T03:54:07.483Z,83.49
2023-11-23T03:55:02.498Z,83.55
2023-11-23T03:55:57.518Z,83.56
2023-11-23T03:56:52.607Z,83.55
2023-11-23T03:57:47.629Z,83.60
2023-11-23T03:58:42.662Z,83.60
2023-11-23T03:59:37.875Z,83.64
2023-11-23T04:00:33.103Z,83.76
2023-11-23T04:01:28.370Z,83.91
2023-11-23T04:02:23.464Z,84.08
2023-11-23T04:03:18.623Z,84.19
2023-11-23T04:04:13.778Z,84.28
2023-11-23T04:05:09.657Z,84.39
2023-11-23T04:06:04.855Z,84.48
2023-11-23T04:07:00.755Z,84.58
2023-11-23T04:07:55.884Z,84.67
2023-11-23T04:08:51.261Z,84.75
2023-11-23T04:09:46.897Z,84.79
2023-11-23T04:10:42.104Z,84.77
2023-11-23T04:11:37.306Z,84.77
2023-11-23T04:12:33.467Z,84.80
2023-11-23T04:13:28.816Z,84.82
2023-11-23T04:14:24.642Z,84.86
2023-11-23T04:15:19.696Z,84.87
2023-11-23T04:16:14.765Z,84.97
2023-11-23T04:17:10.648Z,85.00
2023-11-23T04:18:05.897Z,85.03
2023-11-23T04:19:01.654Z,85.08
2023-11-23T04:19:56.791Z,85.07
2023-11-23T04:20:52.182Z,85.14
2023-11-23T04:21:47.880Z,85.13
2023-11-23T04:22:43.137Z,85.12
2023-11-23T04:23:38.356Z,85.11
2023-11-23T04:24:34.536Z,85.14
2023-11-23T04:25:29.726Z,85.07
2023-11-23T04:26:25.488Z,85.08
2023-11-23T04:27:20.661Z,85.02
2023-11-23T04:28:15.843Z,85.09
2023-11-23T04:29:11.631Z,85.13
2023-11-23T04:30:06.866Z,85.20
2023-11-23T04:31:02.686Z,85.31
2023-11-23T04:31:57.750Z,85.43
2023-11-23T04:32:53.128Z,85.52
2023-11-23T04:33:49.187Z,85.53
2023-11-23T04:34:44.081Z,85.58
2023-11-23T04:35:39.379Z,85.63
2023-11-23T04:36:35.396Z,85.64
2023-11-23T04:37:30.602Z,85.59
2023-11-23T04:38:26.361Z,85.56
2023-11-23T04:39:21.636Z,85.58
2023-11-23T04:40:16.826Z,85.53
2023-11-23T04:41:12.584Z,85.47
2023-11-23T04:42:07.794Z,85.33
2023-11-23T04:43:03.686Z,85.25
2023-11-23T04:43:58.815Z,85.17
2023-11-23T04:44:54.385Z,85.14
2023-11-23T04:45:49.849Z,85.12
2023-11-23T04:46:45.170Z,85.18
2023-11-23T04:47:40.234Z,85.35
2023-11-23T04:48:36.691Z,85.46
2023-11-23T04:49:31.763Z,85.64
2023-11-23T04:50:27.664Z,85.79
2023-11-23T04:51:22.834Z,85.95
2023-11-23T04:52:18.204Z,86.07
2023-11-23T04:53:13.787Z,86.10
2023-11-23T04:54:09.051Z,86.15
2023-11-23T04:55:04.792Z,86.21
2023-11-23T04:56:00.001Z,86.12
2023-11-23T04:56:55.197Z,85.95
2023-11-23T04:57:51.077Z,85.78
2023-11-23T04:58:46.143Z,85.64
2023-11-23T04:59:41.334Z,85.57
2023-11-23T05:00:37.773Z,85.41
2023-11-23T05:01:32.823Z,85.29
2023-11-23T05:02:28.540Z,85.19
2023-11-23T05:03:23.803Z,85.18
2023-11-23T05:04:18.877Z,85.19
2023-11-23T05:05:14.064Z,85.24
2023-11-23T05:06:09.261Z,85.37
2023-11-23T05:07:05.162Z,85.33
2023-11-23T05:08:00.367Z,85.33
2023-11-23T05:08:55.700Z,85.25
2023-11-23T05:09:51.970Z,85.32
2023-11-23T05:10:47.393Z,85.38
2023-11-23T05:11:42.989Z,85.50
2023-11-23T05:12:38.186Z,85.71
2023-11-23T05:13:33.489Z,85.70
2023-11-23T05:14:29.257Z,85.67
2023-11-23T05:15:24.472Z,85.73
2023-11-23T05:16:20.378Z,85.73
2023-11-23T05:17:15.408Z,85.82
2023-11-23T05:18:10.791Z,85.94
2023-11-23T05:19:06.570Z,86.03
2023-11-23T05:20:01.796Z,86.05
2023-11-23T05:20:57.302Z,86.27
2023-11-23T05:21:52.214Z,86.25
2023-11-23T05:22:47.365Z,86.19
2023-11-23T05:23:42.434Z,86.17
2023-11-23T05:24:37.584Z,86.09
2023-11-23T05:25:36.305Z,86.11
2023-11-23T05:26:31.377Z,86.10
2023-11-23T05:27:26.658Z,86.12
2023-11-23T05:28:21.704Z,86.16
2023-11-23T05:29:16.747Z,86.12
2023-11-23T05:30:11.801Z,86.01
2023-11-23T05:31:06.933Z,85.82
2023-11-23T05:32:01.958Z,85.63
2023-11-23T05:32:57.077Z,85.60
2023-11-23T05:33:52.173Z,85.43
2023-11-23T05:34:47.230Z,85.39
2023-11-23T05:35:42.328Z,85.36
2023-11-23T05:36:37.370Z,85.56
2023-11-23T05:37:32.439Z,85.56
2023-11-23T05:38:27.535Z,85.56
2023-11-23T05:39:22.644Z,85.61
2023-11-23T05:40:17.741Z,85.76
2023-11-23T05:41:12.794Z,85.68
2023-11-23T05:42:07.891Z,85.68
2023-11-23T05:43:05.790Z,85.81
2023-11-23T05:43:57.940Z,85.84
2023-11-23T05:44:53.004Z,85.80
2023-11-23T05:45:48.053Z,85.69
2023-11-23T05:46:43.295Z,85.67
2023-11-23T05:47:38.382Z,85.74
2023-11-23T05:48:33.498Z,85.77
2023-11-23T05:49:28.506Z,85.71
2023-11-23T05:50:23.587Z,85.70
2023-11-23T05:51:18.680Z,85.77
2023-11-23T05:52:13.601Z,85.83
2023-11-23T05:53:08.704Z,85.93
2023-11-23T05:54:03.948Z,85.97
2023-11-23T05:54:59.284Z,85.89
2023-11-23T05:55:55.572Z,85.87
2023-11-23T05:56:50.850Z,85.82
2023-11-23T05:57:46.583Z,85.81
2023-11-23T05:58:41.804Z,85.83
2023-11-23T05:59:36.862Z,85.87
2023-11-23T06:00:32.827Z,85.85
2023-11-23T06:01:28.031Z,85.85
2023-11-23T06:02:23.993Z,85.90
2023-11-23T06:03:21.224Z,85.92
2023-11-23T06:04:14.327Z,86.03
2023-11-23T06:05:10.089Z,85.99
2023-11-23T06:06:05.300Z,85.94
2023-11-23T06:07:00.641Z,86.05
2023-11-23T06:07:56.741Z,86.28
2023-11-23T06:08:52.003Z,86.44
2023-11-23T06:09:47.807Z,86.58
2023-11-23T06:10:42.973Z,86.64
2023-11-23T06:11:38.332Z,86.65
2023-11-23T06:12:33.957Z,86.59
2023-11-23T06:13:29.162Z,86.47
2023-11-23T06:14:25.038Z,86.40
2023-11-23T06:15:20.103Z,86.29
2023-11-23T06:16:15.437Z,86.07
2023-11-23T06:17:11.175Z,85.91
2023-11-23T06:18:13.530Z,85.87
2023-11-23T06:19:04.087Z,85.73
2023-11-23T06:19:56.701Z,85.58
2023-11-23T06:20:52.692Z,85.46
2023-11-23T06:21:47.699Z,85.32
2023-11-23T06:22:43.086Z,85.14
2023-11-23T06:23:39.189Z,85.15
2023-11-23T06:24:34.436Z,85.17
2023-11-23T06:25:30.267Z,85.31
2023-11-23T06:26:25.565Z,85.53
2023-11-23T06:27:21.173Z,85.65
2023-11-23T06:28:16.634Z,85.85
2023-11-23T06:29:11.972Z,85.97
2023-11-23T06:30:07.717Z,86.22
2023-11-23T06:31:02.989Z,86.35
2023-11-23T06:32:00.396Z,86.27
2023-11-23T06:32:54.071Z,86.20
2023-11-23T06:33:49.513Z,86.11
2023-11-23T06:34:44.701Z,86.06
2023-11-23T06:35:41.061Z,86.01
2023-11-23T06:36:36.303Z,85.98
2023-11-23T06:37:32.246Z,86.01
2023-11-23T06:38:27.286Z,86.00
2023-11-23T06:39:22.662Z,85.91
2023-11-23T06:40:18.295Z,85.86
2023-11-23T06:41:13.697Z,85.75
2023-11-23T06:42:09.515Z,85.75
2023-11-23T06:43:04.872Z,85.76
2023-11-23T06:44:00.112Z,85.85
2023-11-23T06:44:55.924Z,85.92
2023-11-23T06:45:51.173Z,85.89
2023-11-23T06:46:46.700Z,85.88
2023-11-23T06:47:42.704Z,85.92
2023-11-23T06:48:38.102Z,85.92
2023-11-23T06:49:33.834Z,85.85
2023-11-23T06:50:29.252Z,85.74
2023-11-23T06:51:24.614Z,85.58
2023-11-23T06:52:19.769Z,85.54
2023-11-23T06:53:14.842Z,85.41
2023-11-23T06:54:09.960Z,85.39
2023-11-23T06:55:04.930Z,85.22
2023-11-23T06:56:00.062Z,85.10
2023-11-23T06:56:55.066Z,85.04
2023-11-23T06:57:50.217Z,85.04
2023-11-23T06:58:45.142Z,85.07
2023-11-23T06:59:40.272Z,85.14
2023-11-23T07:00:35.554Z,85.14
2023-11-23T07:01:30.490Z,85.09
2023-11-23T07:02:25.735Z,85.01
2023-11-23T07:03:20.605Z,85.02
2023-11-23T07:04:15.596Z,85.05
2023-11-23T07:05:14.587Z,85.14
2023-11-23T07:06:09.632Z,85.19
2023-11-23T07:07:04.829Z,85.26
2023-11-23T07:07:59.650Z,85.26
2023-11-23T07:08:54.695Z,85.16
2023-11-23T07:09:49.733Z,85.21
2023-11-23T07:10:44.787Z,85.23
2023-11-23T07:11:39.774Z,85.19
2023-11-23T07:12:34.905Z,85.36
2023-11-23T07:13:29.940Z,85.36
2023-11-23T07:14:24.987Z,85.27
2023-11-23T07:15:20.168Z,85.29
2023-11-23T07:16:15.190Z,85.42
2023-11-23T07:17:10.077Z,85.86
2023-11-23T07:18:05.244Z,85.61
2023-11-23T07:19:00.184Z,84.28
2023-11-23T07:19:55.240Z,83.42
2023-11-23T07:20:50.436Z,83.39
2023-11-23T07:21:45.539Z,82.97
2023-11-23T07:22:40.926Z,81.88
2023-11-23T07:23:36.302Z,80.42
2023-11-23T07:24:35.163Z,79.09
2023-11-23T07:25:30.940Z,77.36
2023-11-23T07:26:25.847Z,75.81
2023-11-23T07:27:21.258Z,75.23
2023-11-23T07:28:16.478Z,75.24
2023-11-23T07:29:11.397Z,75.42
2023-11-23T07:30:06.457Z,74.63
2023-11-23T07:31:01.566Z,74.09
2023-11-23T07:31:56.586Z,73.42
2023-11-23T07:32:51.748Z,72.32
2023-11-23T07:33:46.688Z,71.45
2023-11-23T07:34:41.751Z,70.58
2023-11-23T07:35:36.792Z,69.65
2023-11-23T07:36:31.872Z,68.60
2023-11-23T07:37:26.898Z,68.10
2023-11-23T07:39:48.395Z,68.32
2023-11-23T07:40:43.400Z,67.54
2023-11-23T07:41:38.877Z,67.11
2023-11-23T07:42:34.231Z,66.32
2023-11-23T07:43:29.871Z,65.54
2023-11-23T07:44:25.023Z,65.36
2023-11-23T07:45:20.706Z,64.48
2023-11-23T07:46:15.842Z,64.08
2023-11-23T07:47:11.300Z,63.64
2023-11-23T07:48:06.845Z,63.86
2023-11-23T07:49:02.088Z,63.38
2023-11-23T07:49:57.513Z,63.11
2023-11-23T07:50:52.890Z,63.23
2023-11-23T07:51:48.162Z,63.42
2023-11-23T07:52:43.658Z,63.73
2023-11-23T07:53:39.111Z,64.67
2023-11-23T07:54:34.325Z,65.36
2023-11-23T07:55:29.610Z,65.46
2023-11-23T07:56:24.961Z,66.54
2023-11-23T07:57:20.465Z,66.69
2023-11-23T07:58:15.774Z,66.51
2023-11-23T07:59:11.011Z,67.04
2023-11-23T08:00:06.762Z,66.67
2023-11-23T08:01:01.940Z,66.52
2023-11-23T08:01:57.151Z,65.71
2023-11-23T08:02:52.648Z,64.94
2023-11-23T08:03:48.101Z,64.61
2023-11-23T08:04:43.176Z,65.00
2023-11-23T08:05:38.631Z,64.30
2023-11-23T08:06:34.041Z,63.47
2023-11-23T08:07:29.402Z,62.88
2023-11-23T08:08:24.914Z,62.63
2023-11-23T08:09:20.151Z,62.17
2023-11-23T08:10:15.524Z,61.65
2023-11-23T08:11:10.877Z,61.17
2023-11-23T08:12:06.312Z,61.64
2023-11-23T08:13:01.640Z,61.81
2023-11-23T08:13:56.918Z,61.78
2023-11-23T08:14:52.384Z,61.62
2023-11-23T08:15:47.751Z,61.85
2023-11-23T08:16:43.196Z,62.72
2023-11-23T08:17:38.376Z,62.40
2023-11-23T08:18:40.334Z,62.29
2023-11-23T08:19:30.223Z,61.96
2023-11-23T08:20:24.357Z,61.41
2023-11-23T08:21:19.669Z,60.72
2023-11-23T08:22:15.048Z,60.51
2023-11-23T08:23:10.365Z,60.24
2023-11-23T08:24:05.867Z,60.78
2023-11-23T08:25:01.285Z,60.88
2023-11-23T08:25:56.577Z,60.87
2023-11-23T08:26:51.899Z,60.34
2023-11-23T08:27:47.250Z,60.24
2023-11-23T08:28:42.556Z,61.32
2023-11-23T08:29:38.107Z,62.24
2023-11-23T08:30:33.565Z,63.22
2023-11-23T08:31:28.782Z,62.94
2023-11-23T08:32:24.018Z,62.36
2023-11-23T08:33:19.590Z,61.78
2023-11-23T08:34:15.197Z,61.31
2023-11-23T08:35:10.378Z,60.88
2023-11-23T08:36:05.583Z,60.11
2023-11-23T08:37:00.902Z,59.28
2023-11-23T08:37:56.202Z,58.50
2023-11-23T08:38:51.671Z,58.81
2023-11-23T08:39:46.961Z,59.24
2023-11-23T08:40:42.282Z,59.97
2023-11-23T08:41:37.706Z,60.14
2023-11-23T08:42:33.042Z,60.51
2023-11-23T08:43:28.338Z,60.17
2023-11-23T08:44:24.059Z,59.33
2023-11-23T08:45:19.245Z,58.90
2023-11-23T08:46:14.556Z,58.21
2023-11-23T08:47:09.986Z,57.78
2023-11-23T08:48:05.397Z,57.17
2023-11-23T08:49:00.720Z,56.77
2023-11-23T08:49:56.293Z,56.01
2023-11-23T08:50:51.733Z,56.53
2023-11-23T08:51:47.085Z,57.48
2023-11-23T08:52:42.496Z,58.61
2023-11-23T08:53:37.849Z,59.37
2023-11-23T08:54:33.192Z,59.84
2023-11-23T08:55:28.717Z,59.75
2023-11-23T08:56:23.879Z,60.09
2023-11-23T08:57:19.409Z,59.90
2023-11-23T08:58:14.731Z,59.78
2023-11-23T08:59:10.189Z,60.02
2023-11-23T09:00:05.533Z,59.42
2023-11-23T09:01:00.878Z,58.12
2023-11-23T09:02:02.121Z,57.01
2023-11-23T09:02:52.975Z,56.07
2023-11-23T09:03:47.199Z,56.01
2023-11-23T09:04:45.271Z,56.63
2023-11-23T09:05:38.022Z,56.88
2023-11-23T09:06:33.340Z,57.63
2023-11-23T09:07:28.625Z,58.03
2023-11-23T09:08:23.996Z,58.43
2023-11-23T09:09:19.900Z,58.71
2023-11-23T09:10:14.666Z,57.62
2023-11-23T09:11:09.976Z,56.74
2023-11-23T09:12:05.452Z,57.59
2023-11-23T09:13:00.709Z,58.18
2023-11-23T09:13:56.096Z,57.92
2023-11-23T09:14:51.404Z,58.14
2023-11-23T09:15:46.921Z,57.85
2023-11-23T09:16:42.055Z,57.55
2023-11-23T09:17:37.619Z,57.25
2023-11-23T09:18:32.909Z,57.12
2023-11-23T09:19:28.239Z,56.22
2023-11-23T09:20:23.849Z,55.95
2023-11-23T09:21:19.876Z,56.09
2023-11-23T09:22:14.370Z,55.58
2023-11-23T09:23:09.784Z,54.87
2023-11-23T09:24:05.205Z,54.77
2023-11-23T09:25:00.714Z,54.03
2023-11-23T09:25:56.317Z,54.24
2023-11-23T09:26:51.591Z,54.89
2023-11-23T09:27:46.927Z,54.75
2023-11-23T09:28:42.355Z,54.85
2023-11-23T09:29:37.714Z,53.85
2023-11-23T09:30:33.202Z,54.95
2023-11-23T09:31:28.576Z,55.26
2023-11-23T09:32:23.884Z,55.12
2023-11-23T09:33:20.562Z,54.07
2023-11-23T09:34:14.775Z,53.85
2023-11-23T09:35:10.165Z,54.47
2023-11-23T09:36:05.730Z,54.36
2023-11-23T09:37:00.922Z,53.85
2023-11-23T09:37:56.442Z,52.79
2023-11-23T09:38:51.822Z,52.37
2023-11-23T09:39:47.392Z,52.50
2023-11-23T09:40:42.699Z,52.30
2023-11-23T09:41:38.117Z,51.32
2023-11-23T09:42:33.486Z,50.45
2023-11-23T09:43:28.854Z,49.98
2023-11-23T09:44:24.299Z,49.57
2023-11-23T09:45:21.143Z,49.66
2023-11-23T09:46:15.216Z,50.47
2023-11-23T09:47:10.642Z,51.21
2023-11-23T09:48:05.959Z,51.84
2023-11-23T09:49:01.541Z,52.32
2023-11-23T09:49:56.772Z,53.24
2023-11-23T09:50:52.262Z,53.15
2023-11-23T09:51:47.502Z,52.29
2023-11-23T09:52:43.025Z,51.29
2023-11-23T09:53:38.491Z,50.24
2023-11-23T09:54:34.006Z,50.07
2023-11-23T09:55:29.165Z,50.92
2023-11-23T09:56:24.700Z,51.81
2023-11-23T09:57:20.018Z,52.32
2023-11-23T09:58:15.367Z,53.50
2023-11-23T09:59:10.711Z,53.84
2023-11-23T10:00:06.240Z,53.52
2023-11-23T10:01:01.577Z,53.98
2023-11-23T10:01:57.020Z,53.66
2023-11-23T10:02:52.366Z,53.60
2023-11-23T10:03:47.783Z,53.53
2023-11-23T10:04:43.162Z,52.73
2023-11-23T10:05:38.864Z,52.79
2023-11-23T10:06:34.258Z,52.00
2023-11-23T10:07:29.699Z,51.29
2023-11-23T10:08:25.045Z,51.84
2023-11-23T10:09:20.892Z,52.08
2023-11-23T10:10:15.951Z,52.38
2023-11-23T10:11:11.524Z,52.49
2023-11-23T10:12:07.279Z,53.29
2023-11-23T10:13:02.542Z,53.60
2023-11-23T10:13:57.885Z,52.76
2023-11-23T10:14:53.289Z,51.95
2023-11-23T10:15:48.717Z,50.39
2023-11-23T10:16:44.135Z,49.95
2023-11-23T10:17:39.631Z,48.76
2023-11-23T10:18:35.016Z,48.71
2023-11-23T10:19:30.381Z,49.83
2023-11-23T10:20:25.825Z,50.09
2023-11-23T10:21:21.240Z,50.47
2023-11-23T10:22:16.779Z,50.19
2023-11-23T10:23:12.025Z,48.95
2023-11-23T10:24:07.423Z,48.18
2023-11-23T10:25:02.790Z,49.32
2023-11-23T10:25:59.400Z,50.28
2023-11-23T10:26:53.614Z,51.10
2023-11-23T10:27:49.061Z,51.31
2023-11-23T10:28:44.533Z,50.66
2023-11-23T10:29:39.907Z,50.02
2023-11-23T10:30:35.436Z,49.50
2023-11-23T10:31:30.994Z,50.03
2023-11-23T10:32:26.462Z,49.40
2023-11-23T10:33:22.031Z,49.09
2023-11-23T10:34:17.428Z,49.34
2023-11-23T10:35:12.764Z,49.72
2023-11-23T10:36:08.222Z,49.00
2023-11-23T10:37:03.719Z,48.40
2023-11-23T10:37:59.070Z,49.27
2023-11-23T10:38:54.507Z,49.93
2023-11-23T10:39:49.987Z,50.23
2023-11-23T10:40:45.286Z,49.98
2023-11-23T10:41:40.675Z,51.22
2023-11-23T10:42:36.145Z,51.73
2023-11-23T10:43:31.520Z,50.84
2023-11-23T10:44:27.171Z,50.56
2023-11-23T10:45:22.999Z,50.72
2023-11-23T10:46:17.840Z,51.51
2023-11-23T10:47:13.300Z,51.25
2023-11-23T10:48:08.728Z,51.98
2023-11-23T10:49:04.134Z,53.00
2023-11-23T10:49:59.671Z,53.10
2023-11-23T10:50:56.360Z,53.20
2023-11-23T10:51:50.753Z,52.44
2023-11-23T10:52:45.937Z,51.85
2023-11-23T10:53:41.629Z,52.66
2023-11-23T10:54:36.858Z,53.76
2023-11-23T10:55:32.327Z,52.76
2023-11-23T10:56:28.502Z,52.27
2023-11-23T10:57:25.369Z,52.81
2023-11-23T10:58:19.383Z,52.70
2023-11-23T10:59:14.697Z,51.59
2023-11-23T11:00:10.028Z,50.43
2023-11-23T11:01:05.676Z,50.01
2023-11-23T11:02:01.166Z,49.23
2023-11-23T11:02:56.734Z,50.67
2023-11-23T11:03:52.021Z,51.89
2023-11-23T11:04:47.504Z,51.49
2023-11-23T11:05:47.406Z,52.08
2023-11-23T11:06:42.441Z,52.77
2023-11-23T11:07:37.800Z,52.03
2023-11-23T11:08:33.237Z,51.84
2023-11-23T11:09:30.475Z,51.94
2023-11-23T11:10:24.057Z,52.01
2023-11-23T11:11:19.416Z,52.09
2023-11-23T11:12:15.043Z,52.71
2023-11-23T11:13:10.191Z,53.72
2023-11-23T11:14:05.793Z,54.33
2023-11-23T11:15:01.007Z,54.43
2023-11-23T11:15:56.545Z,54.07
2023-11-23T11:16:52.057Z,54.11
2023-11-23T11:17:47.575Z,54.77
2023-11-23T11:18:42.792Z,55.26
2023-11-23T11:19:37.891Z,55.56
2023-11-23T11:20:32.952Z,55.24
2023-11-23T11:21:30.117Z,54.56
2023-11-23T11:22:23.309Z,54.48
2023-11-23T11:23:18.375Z,54.36
2023-11-23T11:24:13.434Z,53.61
2023-11-23T11:25:08.524Z,53.82
2023-11-23T11:26:03.533Z,54.13
2023-11-23T11:27:00.376Z,54.29
2023-11-23T11:27:55.345Z,54.28
2023-11-23T11:28:50.467Z,53.05
2023-11-23T11:29:45.941Z,52.17
2023-11-23T11:30:40.726Z,52.07
2023-11-23T11:31:35.744Z,52.93
2023-11-23T11:32:30.855Z,53.97
2023-11-23T11:33:25.918Z,54.22
2023-11-23T11:34:20.876Z,54.21
2023-11-23T11:35:15.962Z,53.62
2023-11-23T11:36:12.356Z,52.37
2023-11-23T11:37:07.738Z,52.40
2023-11-23T11:38:03.627Z,52.36
2023-11-23T11:38:59.166Z,51.94
2023-11-23T11:39:54.494Z,51.70
2023-11-23T11:40:50.441Z,52.62
2023-11-23T11:41:45.660Z,53.03
2023-11-23T11:42:41.840Z,54.45
2023-11-23T11:43:36.873Z,54.87
2023-11-23T11:44:32.266Z,55.22
2023-11-23T11:45:28.360Z,56.14
2023-11-23T11:46:23.700Z,56.16
2023-11-23T11:47:19.164Z,56.28
2023-11-23T11:48:15.459Z,55.70
2023-11-23T11:49:10.860Z,55.17
2023-11-23T11:50:06.702Z,55.31
2023-11-23T11:51:02.114Z,55.62
2023-11-23T11:51:57.478Z,55.46
2023-11-23T11:52:53.200Z,55.44
2023-11-23T11:53:48.597Z,55.41